Time,TemperatureF,DewpointF,PressureIn,WindDirection,WindDirectionDegrees,WindSpeedMPH,WindSpeedGustMPH,Humidity,HourlyPrecipIn,Conditions,Clouds,dailyrainin,SoftwareType,DateUTC
2013-06-04 00:01:00,49.4,45.4,30.00,North,1,0.0,0.0,86,0.00,,---,0.00,VWS V14.01,2013-06-04 04:01:00,
2013-06-04 00:06:00,49.1,45.4,30.00,North,1,0.0,0.0,87,0.00,,---,0.00,VWS V14.01,2013-06-04 04:06:00,
2013-06-04 00:11:00,49.1,45.7,30.00,North,1,0.0,0.0,88,0.00,,---,0.00,VWS V14.01,2013-06-04 04:11:00,
2013-06-04 00:17:00,49.0,45.3,30.00,North,1,0.0,0.0,87,0.00,,---,0.00,VWS V14.01,2013-06-04 04:17:00,
2013-06-04 00:22:00,49.0,45.3,30.00,North,1,0.0,0.0,87,0.00,,---,0.00,VWS V14.01,2013-06-04 04:22:00,
2013-06-04 00:27:00,48.9,45.2,30.00,North,1,0.0,0.0,87,0.00,,---,0.00,VWS V14.01,2013-06-04 04:27:00,
2013-06-04 00:32:00,48.7,45.3,30.00,North,1,0.0,0.0,88,0.00,,---,0.00,VWS V14.01,2013-06-04 04:32:00,
2013-06-04 00:37:00,48.7,45.6,30.00,North,1,0.0,0.0,89,0.00,,---,0.00,VWS V14.01,2013-06-04 04:37:00,
2013-06-04 00:42:00,48.6,45.5,30.01,North,1,0.0,0.0,89,0.00,,---,0.00,VWS V14.01,2013-06-04 04:42:00,
2013-06-04 00:47:00,48.4,45.6,30.01,North,1,0.0,0.0,90,0.00,,---,0.00,VWS V14.01,2013-06-04 04:47:00,
2013-06-04 00:52:00,48.4,45.9,30.01,North,1,0.0,0.0,91,0.00,,---,0.00,VWS V14.01,2013-06-04 04:52:00,
2013-06-04 00:57:00,48.4,45.9,30.01,North,1,0.0,0.0,91,0.00,,---,0.00,VWS V14.01,2013-06-04 04:57:00,
2013-06-04 01:02:00,48.2,45.4,30.01,North,1,0.0,0.0,90,0.00,,---,0.00,VWS V14.01,2013-06-04 05:02:00,
2013-06-04 01:07:00,48.2,45.4,30.01,North,1,0.0,0.0,90,0.00,,---,0.00,VWS V14.01,2013-06-04 05:07:00,
2013-06-04 01:12:00,48.2,45.1,30.01,North,1,0.0,0.0,89,0.00,,---,0.00,VWS V14.01,2013-06-04 05:12:00,
2013-06-04 01:17:00,48.1,45.3,30.01,North,1,0.0,0.0,90,0.00,,---,0.00,VWS V14.01,2013-06-04 05:17:00,
2013-06-04 01:22:00,47.9,45.1,30.01,North,1,0.0,0.0,90,0.00,,---,0.00,VWS V14.01,2013-06-04 05:22:00,
2013-06-04 01:27:00,47.8,45.0,30.01,North,1,0.0,0.0,90,0.00,,---,0.00,VWS V14.01,2013-06-04 05:27:00,
2013-06-04 01:32:00,47.6,44.8,30.01,North,1,0.0,0.0,90,0.00,,---,0.00,VWS V14.01,2013-06-04 05:32:00,
2013-06-04 01:37:00,47.6,44.8,30.01,North,1,0.0,0.0,90,0.00,,---,0.00,VWS V14.01,2013-06-04 05:37:00,
2013-06-04 01:42:00,47.7,45.2,30.01,North,1,0.0,0.0,91,0.00,,---,0.00,VWS V14.01,2013-06-04 05:42:00,
2013-06-04 01:47:00,47.7,45.2,30.01,North,1,0.0,0.0,91,0.00,,---,0.00,VWS V14.01,2013-06-04 05:47:00,
2013-06-04 01:52:00,47.7,45.2,30.01,North,1,0.0,0.0,91,0.00,,---,0.00,VWS V14.01,2013-06-04 05:52:00,
2013-06-04 01:57:00,47.4,44.9,30.01,North,1,0.0,0.0,91,0.00,,---,0.00,VWS V14.01,2013-06-04 05:57:00,
2013-06-04 02:02:00,47.2,45.0,30.01,North,1,0.0,0.0,92,0.00,,---,0.00,VWS V14.01,2013-06-04 06:02:00,
2013-06-04 02:07:00,47.0,44.8,30.01,North,1,0.0,0.0,92,0.00,,---,0.00,VWS V14.01,2013-06-04 06:07:00,
2013-06-04 02:12:00,46.9,44.7,30.01,North,1,0.0,0.0,92,0.00,,---,0.00,VWS V14.01,2013-06-04 06:12:00,
2013-06-04 02:17:00,46.8,44.9,30.01,North,1,0.0,0.0,93,0.00,,---,0.00,VWS V14.01,2013-06-04 06:17:00,
2013-06-04 02:22:00,46.7,44.8,30.01,North,1,0.0,0.0,93,0.00,,---,0.00,VWS V14.01,2013-06-04 06:22:00,
2013-06-04 02:27:00,46.5,44.6,30.01,North,1,0.0,0.0,93,0.00,,---,0.00,VWS V14.01,2013-06-04 06:27:00,
2013-06-04 02:32:00,46.4,44.8,30.01,North,1,0.0,0.0,94,0.00,,---,0.00,VWS V14.01,2013-06-04 06:32:00,
2013-06-04 02:37:00,46.4,44.8,30.01,North,1,0.0,0.0,94,0.00,,---,0.00,VWS V14.01,2013-06-04 06:37:00,
2013-06-04 02:42:00,46.3,44.7,30.01,North,1,0.0,0.0,94,0.00,,---,0.00,VWS V14.01,2013-06-04 06:42:00,
2013-06-04 02:46:00,46.1,44.8,30.01,North,1,0.0,0.0,95,0.00,,---,0.00,VWS V14.01,2013-06-04 06:46:00,
2013-06-04 02:52:00,46.1,44.8,30.01,North,1,0.0,0.0,95,0.00,,---,0.00,VWS V14.01,2013-06-04 06:52:00,
2013-06-04 02:57:00,45.9,44.5,30.02,North,1,0.0,0.0,95,0.00,,---,0.00,VWS V14.01,2013-06-04 06:57:00,
2013-06-04 03:02:00,46.0,44.7,30.02,North,1,0.0,0.0,95,0.00,,---,0.00,VWS V14.01,2013-06-04 07:02:00,
2013-06-04 03:06:00,46.0,44.7,30.02,North,1,0.0,0.0,95,0.00,,---,0.00,VWS V14.01,2013-06-04 07:06:00,
2013-06-04 03:11:00,45.9,44.5,30.02,North,1,0.0,0.0,95,0.00,,---,0.00,VWS V14.01,2013-06-04 07:11:00,
2013-06-04 03:16:00,46.0,44.7,30.02,North,1,0.0,0.0,95,0.00,,---,0.00,VWS V14.01,2013-06-04 07:16:00,
2013-06-04 03:22:00,46.0,44.7,30.02,North,1,0.0,0.0,95,0.00,,---,0.00,VWS V14.01,2013-06-04 07:22:00,
2013-06-04 03:27:00,46.0,44.9,30.02,North,1,0.0,0.0,96,0.00,,---,0.00,VWS V14.01,2013-06-04 07:27:00,
2013-06-04 03:32:00,45.9,44.8,30.02,North,1,0.0,0.0,96,0.00,,---,0.00,VWS V14.01,2013-06-04 07:32:00,
2013-06-04 03:37:00,45.8,44.5,30.02,North,1,0.0,0.0,95,0.00,,---,0.00,VWS V14.01,2013-06-04 07:37:00,
2013-06-04 03:42:00,45.8,44.5,30.02,North,1,0.0,0.0,95,0.00,,---,0.00,VWS V14.01,2013-06-04 07:42:00,
2013-06-04 03:47:00,45.6,44.2,30.02,North,1,0.0,0.0,95,0.00,,---,0.00,VWS V14.01,2013-06-04 07:47:00,
2013-06-04 03:52:00,45.6,44.5,30.02,North,1,0.0,0.0,96,0.00,,---,0.00,VWS V14.01,2013-06-04 07:52:00,
2013-06-04 03:57:00,45.5,44.4,30.02,North,1,0.0,0.0,96,0.00,,---,0.00,VWS V14.01,2013-06-04 07:57:00,
2013-06-04 04:02:00,45.4,44.3,30.02,North,1,0.0,0.0,96,0.00,,---,0.00,VWS V14.01,2013-06-04 08:02:00,
2013-06-04 04:07:00,45.3,44.2,30.02,North,1,0.0,0.0,96,0.00,,---,0.00,VWS V14.01,2013-06-04 08:07:00,
2013-06-04 04:12:00,45.2,44.1,30.02,North,1,0.0,0.0,96,0.00,,---,0.00,VWS V14.01,2013-06-04 08:12:00,
2013-06-04 04:17:00,45.1,44.0,30.02,North,1,0.0,0.0,96,0.00,,---,0.00,VWS V14.01,2013-06-04 08:17:00,
2013-06-04 04:22:00,45.0,43.9,30.02,North,1,0.0,0.0,96,0.00,,---,0.00,VWS V14.01,2013-06-04 08:22:00,
2013-06-04 04:27:00,44.9,43.8,30.02,North,1,0.0,0.0,96,0.00,,---,0.00,VWS V14.01,2013-06-04 08:27:00,
2013-06-04 04:32:00,44.8,43.7,30.02,North,1,0.0,0.0,96,0.00,,---,0.00,VWS V14.01,2013-06-04 08:32:00,
2013-06-04 04:36:00,44.7,43.6,30.02,North,1,0.0,0.0,96,0.00,,---,0.00,VWS V14.01,2013-06-04 08:36:00,
2013-06-04 04:42:00,44.6,43.5,30.03,North,1,0.0,0.0,96,0.00,,---,0.00,VWS V14.01,2013-06-04 08:42:00,
2013-06-04 04:47:00,44.8,43.7,30.03,North,1,0.0,0.0,96,0.00,,---,0.00,VWS V14.01,2013-06-04 08:47:00,
2013-06-04 04:52:00,45.0,43.9,30.03,North,1,0.0,0.0,96,0.00,,---,0.00,VWS V14.01,2013-06-04 08:52:00,
2013-06-04 04:57:00,45.0,43.9,30.03,North,1,0.0,0.0,96,0.00,,---,0.00,VWS V14.01,2013-06-04 08:57:00,
2013-06-04 05:02:00,44.8,43.7,30.03,North,1,0.0,0.0,96,0.00,,---,0.00,VWS V14.01,2013-06-04 09:02:00,
2013-06-04 05:07:00,44.7,43.6,30.03,North,1,0.0,0.0,96,0.00,,---,0.00,VWS V14.01,2013-06-04 09:07:00,
2013-06-04 05:12:00,44.6,43.5,30.03,North,1,0.0,0.0,96,0.00,,---,0.00,VWS V14.01,2013-06-04 09:12:00,
2013-06-04 05:17:00,44.7,43.9,30.03,North,1,0.0,0.0,97,0.00,,---,0.00,VWS V14.01,2013-06-04 09:17:00,
2013-06-04 05:22:00,44.8,44.0,30.03,North,1,0.0,0.0,97,0.00,,---,0.00,VWS V14.01,2013-06-04 09:22:00,
2013-06-04 05:27:00,44.7,43.6,30.03,North,1,0.0,0.0,96,0.00,,---,0.00,VWS V14.01,2013-06-04 09:27:00,
2013-06-04 05:32:00,44.5,43.4,30.03,North,1,0.0,0.0,96,0.00,,---,0.00,VWS V14.01,2013-06-04 09:32:00,
2013-06-04 05:37:00,44.4,43.3,30.03,North,1,0.0,0.0,96,0.00,,---,0.00,VWS V14.01,2013-06-04 09:37:00,
2013-06-04 05:42:00,44.2,43.1,30.03,North,1,0.0,0.0,96,0.00,,---,0.00,VWS V14.01,2013-06-04 09:42:00,
2013-06-04 05:47:00,44.2,43.1,30.03,North,1,0.0,0.0,96,0.00,,---,0.00,VWS V14.01,2013-06-04 09:47:00,
2013-06-04 05:52:00,44.2,43.1,30.03,North,1,0.0,0.0,96,0.00,,---,0.00,VWS V14.01,2013-06-04 09:52:00,
2013-06-04 05:57:00,44.1,43.0,30.04,North,1,0.0,0.0,96,0.00,,---,0.00,VWS V14.01,2013-06-04 09:57:00,
2013-06-04 06:02:00,44.1,43.3,30.04,North,1,0.0,0.0,97,0.00,,---,0.00,VWS V14.01,2013-06-04 10:02:00,
2013-06-04 06:07:00,44.3,43.5,30.04,North,1,0.0,0.0,97,0.00,,---,0.00,VWS V14.01,2013-06-04 10:07:00,
2013-06-04 06:12:00,44.4,43.6,30.05,North,1,0.0,0.0,97,0.00,,---,0.00,VWS V14.01,2013-06-04 10:12:00,
2013-06-04 06:17:00,44.4,43.6,30.05,North,1,0.0,0.0,97,0.00,,---,0.00,VWS V14.01,2013-06-04 10:17:00,
2013-06-04 06:22:00,44.3,43.5,30.05,North,1,0.0,0.0,97,0.00,,---,0.00,VWS V14.01,2013-06-04 10:22:00,
2013-06-04 06:27:00,44.2,43.4,30.05,North,1,0.0,0.0,97,0.00,,---,0.00,VWS V14.01,2013-06-04 10:27:00,
2013-06-04 06:32:00,44.2,43.4,30.05,North,1,0.0,0.0,97,0.00,,---,0.00,VWS V14.01,2013-06-04 10:32:00,
2013-06-04 06:37:00,44.3,43.5,30.05,North,1,0.0,0.0,97,0.00,,---,0.00,VWS V14.01,2013-06-04 10:37:00,
2013-06-04 06:42:00,44.4,43.6,30.05,North,1,0.0,0.0,97,0.00,,---,0.00,VWS V14.01,2013-06-04 10:42:00,
2013-06-04 06:47:00,44.4,43.6,30.05,North,1,0.0,0.0,97,0.00,,---,0.00,VWS V14.01,2013-06-04 10:47:00,
2013-06-04 06:52:00,44.5,43.7,30.05,North,1,0.0,0.0,97,0.00,,---,0.00,VWS V14.01,2013-06-04 10:52:00,
2013-06-04 06:57:00,44.7,43.9,30.07,North,1,0.0,0.0,97,0.00,,---,0.00,VWS V14.01,2013-06-04 10:57:00,
2013-06-04 07:02:00,44.9,44.1,30.07,North,1,0.0,0.0,97,0.00,,---,0.00,VWS V14.01,2013-06-04 11:02:00,
2013-06-04 07:07:00,44.9,44.1,30.07,North,1,0.0,0.0,97,0.00,,---,0.00,VWS V14.01,2013-06-04 11:07:00,
2013-06-04 07:12:00,45.1,44.3,30.08,North,1,0.0,0.0,97,0.00,,---,0.00,VWS V14.01,2013-06-04 11:12:00,
2013-06-04 07:17:00,45.3,44.5,30.08,North,1,0.0,0.0,97,0.00,,---,0.00,VWS V14.01,2013-06-04 11:17:00,
2013-06-04 07:22:00,45.8,45.0,30.08,North,1,0.0,0.0,97,0.00,,---,0.00,VWS V14.01,2013-06-04 11:22:00,
2013-06-04 07:27:00,46.1,45.3,30.08,North,1,0.0,0.0,97,0.00,,---,0.00,VWS V14.01,2013-06-04 11:27:00,
2013-06-04 07:32:00,46.5,45.7,30.08,North,1,0.0,0.0,97,0.00,,---,0.00,VWS V14.01,2013-06-04 11:32:00,
2013-06-04 07:37:00,46.9,46.4,30.08,North,1,0.0,0.0,98,0.00,,---,0.00,VWS V14.01,2013-06-04 11:37:00,
2013-06-04 07:42:00,47.2,46.4,30.07,North,1,0.0,0.0,97,0.00,,---,0.00,VWS V14.01,2013-06-04 11:42:00,
2013-06-04 07:47:00,47.4,46.9,30.07,North,1,0.0,0.0,98,0.00,,---,0.00,VWS V14.01,2013-06-04 11:47:00,
2013-06-04 07:52:00,47.8,47.0,30.07,North,1,0.0,0.0,97,0.00,,---,0.00,VWS V14.01,2013-06-04 11:52:00,
2013-06-04 07:57:00,48.7,47.9,30.07,North,1,0.0,0.0,97,0.00,,---,0.00,VWS V14.01,2013-06-04 11:57:00,
2013-06-04 08:02:00,50.5,48.8,30.07,North,1,0.0,0.0,94,0.00,,---,0.00,VWS V14.01,2013-06-04 12:02:00,
2013-06-04 08:07:00,51.5,48.4,30.07,North,1,0.0,0.0,89,0.00,,---,0.00,VWS V14.01,2013-06-04 12:07:00,
2013-06-04 08:12:00,52.3,47.6,30.06,North,1,0.0,0.0,84,0.00,,---,0.00,VWS V14.01,2013-06-04 12:12:00,
2013-06-04 08:17:00,53.0,48.0,30.06,NNE,22,0.0,1.0,83,0.00,,---,0.00,VWS V14.01,2013-06-04 12:17:00,
2013-06-04 08:22:00,53.6,48.2,30.06,NNE,22,0.0,1.0,82,0.00,,---,0.00,VWS V14.01,2013-06-04 12:22:00,
2013-06-04 08:27:00,54.1,48.4,30.06,NNE,22,0.0,0.0,81,0.00,,---,0.00,VWS V14.01,2013-06-04 12:27:00,
2013-06-04 08:32:00,54.4,48.7,30.06,NNE,22,0.0,1.0,81,0.00,,---,0.00,VWS V14.01,2013-06-04 12:32:00,
2013-06-04 08:37:00,54.7,48.7,30.06,NNE,22,0.0,0.0,80,0.00,,---,0.00,VWS V14.01,2013-06-04 12:37:00,
2013-06-04 08:42:00,55.3,49.6,30.06,NNE,22,0.0,0.0,81,0.00,,---,0.00,VWS V14.01,2013-06-04 12:42:00,
2013-06-04 08:47:00,55.7,49.3,30.06,NNE,22,0.0,1.0,79,0.00,,---,0.00,VWS V14.01,2013-06-04 12:47:00,
2013-06-04 08:52:00,56.0,49.2,30.06,NNE,23,0.0,1.0,78,0.00,,---,0.00,VWS V14.01,2013-06-04 12:52:00,
2013-06-04 08:57:00,56.2,49.1,30.07,NNE,22,0.0,0.0,77,0.00,,---,0.00,VWS V14.01,2013-06-04 12:57:00,
2013-06-04 09:02:00,56.4,48.9,30.07,NNE,22,0.0,0.0,76,0.00,,---,0.00,VWS V14.01,2013-06-04 13:02:00,
2013-06-04 09:07:00,56.7,49.2,30.07,NNE,22,0.0,0.0,76,0.00,,---,0.00,VWS V14.01,2013-06-04 13:07:00,
2013-06-04 09:12:00,57.1,49.6,30.07,NNE,22,0.0,1.0,76,0.00,,---,0.00,VWS V14.01,2013-06-04 13:12:00,
2013-06-04 09:17:00,57.7,50.2,30.07,NNE,23,0.0,0.0,76,0.00,,---,0.00,VWS V14.01,2013-06-04 13:17:00,
2013-06-04 09:22:00,58.1,50.6,30.07,NNE,22,0.0,0.0,76,0.00,,---,0.00,VWS V14.01,2013-06-04 13:22:00,
2013-06-04 09:27:00,58.8,50.5,30.08,NNE,23,0.0,0.0,74,0.00,,---,0.00,VWS V14.01,2013-06-04 13:27:00,
2013-06-04 09:32:00,59.1,50.5,30.08,NNE,23,0.0,0.0,73,0.00,,---,0.00,VWS V14.01,2013-06-04 13:32:00,
2013-06-04 09:37:00,59.8,51.1,30.08,NNE,22,0.0,1.0,73,0.00,,---,0.00,VWS V14.01,2013-06-04 13:37:00,
2013-06-04 09:42:00,60.2,51.5,30.07,NNE,23,0.0,0.0,73,0.00,,---,0.00,VWS V14.01,2013-06-04 13:42:00,
2013-06-04 09:47:00,60.2,50.4,30.07,NNE,23,0.0,0.0,70,0.00,,---,0.00,VWS V14.01,2013-06-04 13:47:00,
2013-06-04 09:52:00,60.6,51.5,30.07,NNE,25,0.0,1.0,72,0.00,,---,0.00,VWS V14.01,2013-06-04 13:52:00,
2013-06-04 09:57:00,60.9,51.5,30.06,NNE,25,0.0,0.0,71,0.00,,---,0.00,VWS V14.01,2013-06-04 13:57:00,
2013-06-04 10:02:00,61.1,52.0,30.06,NNE,25,0.0,1.0,72,0.00,,---,0.00,VWS V14.01,2013-06-04 14:02:00,
2013-06-04 10:07:00,61.0,51.5,30.06,NNE,25,0.0,0.0,71,0.00,,---,0.00,VWS V14.01,2013-06-04 14:07:00,
2013-06-04 10:12:00,61.5,51.6,30.06,NNE,25,0.0,0.0,70,0.00,,---,0.00,VWS V14.01,2013-06-04 14:12:00,
2013-06-04 10:17:00,62.0,52.1,30.06,NNE,25,0.0,1.0,70,0.00,,---,0.00,VWS V14.01,2013-06-04 14:17:00,
2013-06-04 10:22:00,62.2,51.5,30.06,NNE,25,0.0,0.0,68,0.00,,---,0.00,VWS V14.01,2013-06-04 14:22:00,
2013-06-04 10:27:00,62.4,51.3,30.07,NNE,26,0.0,1.0,67,0.00,,---,0.00,VWS V14.01,2013-06-04 14:27:00,
2013-06-04 10:32:00,62.6,51.5,30.07,NNE,26,0.0,0.0,67,0.00,,---,0.00,VWS V14.01,2013-06-04 14:32:00,
2013-06-04 10:37:00,62.9,51.0,30.07,NNE,26,0.0,1.0,65,0.00,,---,0.00,VWS V14.01,2013-06-04 14:37:00,
2013-06-04 10:42:00,63.1,53.2,30.07,NNE,25,0.0,0.0,70,0.00,,---,0.00,VWS V14.01,2013-06-04 14:42:00,
2013-06-04 10:47:00,63.4,51.0,30.07,NE,35,0.0,0.0,64,0.00,,---,0.00,VWS V14.01,2013-06-04 14:47:00,
2013-06-04 10:52:00,63.6,52.5,30.07,NE,35,1.0,1.0,67,0.00,,---,0.00,VWS V14.01,2013-06-04 14:52:00,
2013-06-04 10:57:00,63.8,51.8,30.08,NE,35,0.0,1.0,65,0.00,,---,0.00,VWS V14.01,2013-06-04 14:57:00,
2013-06-04 11:02:00,63.8,51.0,30.08,NE,35,0.0,0.0,63,0.00,,---,0.00,VWS V14.01,2013-06-04 15:02:00,
2013-06-04 11:07:00,64.3,51.9,30.08,NE,35,0.0,0.0,64,0.00,,---,0.00,VWS V14.01,2013-06-04 15:07:00,
2013-06-04 11:12:00,64.5,51.2,30.08,NE,35,0.0,0.0,62,0.00,,---,0.00,VWS V14.01,2013-06-04 15:12:00,
2013-06-04 11:17:00,64.7,52.3,30.08,NE,35,0.0,1.0,64,0.00,,---,0.00,VWS V14.01,2013-06-04 15:17:00,
2013-06-04 11:22:00,64.7,51.8,30.08,NE,35,0.0,0.0,63,0.00,,---,0.00,VWS V14.01,2013-06-04 15:22:00,
2013-06-04 11:27:00,64.9,52.9,30.08,NE,35,0.0,0.0,65,0.00,,---,0.00,VWS V14.01,2013-06-04 15:27:00,
2013-06-04 11:32:00,65.5,53.0,30.08,NE,35,1.0,1.0,64,0.00,,---,0.00,VWS V14.01,2013-06-04 15:32:00,
2013-06-04 11:37:00,65.8,50.2,30.08,NE,35,0.0,1.0,57,0.00,,---,0.00,VWS V14.01,2013-06-04 15:37:00,
2013-06-04 11:42:00,65.8,49.2,30.07,NE,35,0.0,1.0,55,0.00,,---,0.00,VWS V14.01,2013-06-04 15:42:00,
2013-06-04 11:47:00,65.9,50.2,30.07,NE,35,0.0,1.0,57,0.00,,---,0.00,VWS V14.01,2013-06-04 15:47:00,
2013-06-04 11:52:00,66.2,49.6,30.07,NE,36,0.0,1.0,55,0.00,,---,0.00,VWS V14.01,2013-06-04 15:52:00,
2013-06-04 11:57:00,66.4,48.8,30.07,NE,38,0.0,1.0,53,0.00,,---,0.00,VWS V14.01,2013-06-04 15:57:00,
2013-06-04 12:02:00,66.3,50.2,30.07,NE,38,0.0,0.0,56,0.00,,---,0.00,VWS V14.01,2013-06-04 16:02:00,
2013-06-04 12:07:00,66.3,51.1,30.07,NE,38,0.0,1.0,58,0.00,,---,0.00,VWS V14.01,2013-06-04 16:07:00,
2013-06-04 12:12:00,66.5,50.8,30.07,NE,38,0.0,1.0,57,0.00,,---,0.00,VWS V14.01,2013-06-04 16:12:00,
2013-06-04 12:17:00,66.7,50.5,30.07,NE,38,0.0,0.0,56,0.00,,---,0.00,VWS V14.01,2013-06-04 16:17:00,
2013-06-04 12:22:00,67.1,49.9,30.07,NE,38,0.0,0.0,54,0.00,,---,0.00,VWS V14.01,2013-06-04 16:22:00,
2013-06-04 12:27:00,67.0,50.3,30.07,NE,38,0.0,1.0,55,0.00,,---,0.00,VWS V14.01,2013-06-04 16:27:00,
2013-06-04 12:32:00,67.2,49.0,30.07,ENE,59,1.0,1.0,52,0.00,,---,0.00,VWS V14.01,2013-06-04 16:32:00,
2013-06-04 12:37:00,67.4,49.2,30.07,ENE,61,0.0,1.0,52,0.00,,---,0.00,VWS V14.01,2013-06-04 16:37:00,
2013-06-04 12:42:00,67.4,50.2,30.06,ENE,61,0.0,1.0,54,0.00,,---,0.00,VWS V14.01,2013-06-04 16:42:00,
2013-06-04 12:47:00,67.7,50.5,30.06,ENE,61,0.0,1.0,54,0.00,,---,0.00,VWS V14.01,2013-06-04 16:47:00,
2013-06-04 12:52:00,68.0,49.2,30.06,ENE,74,0.0,2.0,51,0.00,,---,0.00,VWS V14.01,2013-06-04 16:52:00,
2013-06-04 12:57:00,67.9,50.2,30.06,ENE,74,0.0,0.0,53,0.00,,---,0.00,VWS V14.01,2013-06-04 16:57:00,
2013-06-04 13:02:00,68.1,48.8,30.06,East,96,0.0,3.0,50,0.00,,---,0.00,VWS V14.01,2013-06-04 17:02:00,
2013-06-04 13:07:00,68.3,49.0,30.06,East,96,0.0,1.0,50,0.00,,---,0.00,VWS V14.01,2013-06-04 17:07:00,
2013-06-04 13:12:00,68.6,49.8,30.05,East,96,0.0,1.0,51,0.00,,---,0.00,VWS V14.01,2013-06-04 17:12:00,
2013-06-04 13:17:00,68.6,49.2,30.05,East,96,0.0,1.0,50,0.00,,---,0.00,VWS V14.01,2013-06-04 17:17:00,
2013-06-04 13:22:00,68.9,51.6,30.05,East,96,0.0,0.0,54,0.00,,---,0.00,VWS V14.01,2013-06-04 17:22:00,
2013-06-04 13:27:00,68.8,48.9,30.06,East,96,0.0,1.0,49,0.00,,---,0.00,VWS V14.01,2013-06-04 17:27:00,
2013-06-04 13:32:00,69.1,48.6,30.06,East,96,1.0,1.0,48,0.00,,---,0.00,VWS V14.01,2013-06-04 17:32:00,
2013-06-04 13:37:00,69.2,50.3,30.06,East,96,0.0,0.0,51,0.00,,---,0.00,VWS V14.01,2013-06-04 17:37:00,
2013-06-04 13:42:00,69.9,51.5,30.06,East,96,0.0,1.0,52,0.00,,---,0.00,VWS V14.01,2013-06-04 17:42:00,
2013-06-04 13:47:00,70.1,50.6,30.06,SE,146,0.0,0.0,50,0.00,,---,0.00,VWS V14.01,2013-06-04 17:47:00,
2013-06-04 13:52:00,70.4,48.7,30.06,ESE,116,0.0,3.0,46,0.00,,---,0.00,VWS V14.01,2013-06-04 17:52:00,
2013-06-04 13:57:00,70.6,49.4,30.06,ESE,116,0.0,1.0,47,0.00,,---,0.00,VWS V14.01,2013-06-04 17:57:00,
2013-06-04 14:02:00,70.6,50.0,30.06,ESE,116,0.0,1.0,48,0.00,,---,0.00,VWS V14.01,2013-06-04 18:02:00,
2013-06-04 14:07:00,70.5,48.8,30.06,ESE,116,0.0,0.0,46,0.00,,---,0.00,VWS V14.01,2013-06-04 18:07:00,
2013-06-04 14:12:00,70.7,51.2,30.06,ESE,116,0.0,0.0,50,0.00,,---,0.00,VWS V14.01,2013-06-04 18:12:00,
2013-06-04 14:17:00,71.0,50.3,30.06,ESE,116,0.0,1.0,48,0.00,,---,0.00,VWS V14.01,2013-06-04 18:17:00,
2013-06-04 14:22:00,71.4,50.7,30.06,ESE,116,0.0,1.0,48,0.00,,---,0.00,VWS V14.01,2013-06-04 18:22:00,
2013-06-04 14:27:00,71.7,48.7,30.05,ESE,116,0.0,1.0,44,0.00,,---,0.00,VWS V14.01,2013-06-04 18:27:00,
2013-06-04 14:32:00,71.5,49.1,30.05,SE,139,0.0,1.0,45,0.00,,---,0.00,VWS V14.01,2013-06-04 18:32:00,
2013-06-04 14:37:00,71.5,48.5,30.05,SE,146,0.0,1.0,44,0.00,,---,0.00,VWS V14.01,2013-06-04 18:37:00,
2013-06-04 14:42:00,71.5,50.2,30.05,SE,146,0.0,1.0,47,0.00,,---,0.00,VWS V14.01,2013-06-04 18:42:00,
2013-06-04 14:47:00,71.9,51.2,30.05,SE,146,0.0,0.0,48,0.00,,---,0.00,VWS V14.01,2013-06-04 18:47:00,
2013-06-04 14:52:00,72.2,52.5,30.05,SE,146,0.0,1.0,50,0.00,,---,0.00,VWS V14.01,2013-06-04 18:52:00,
2013-06-04 14:57:00,72.2,49.7,30.04,SE,146,0.0,2.0,45,0.00,,---,0.00,VWS V14.01,2013-06-04 18:57:00,
2013-06-04 15:02:00,72.1,49.6,30.04,West,259,0.0,4.0,45,0.00,,---,0.00,VWS V14.01,2013-06-04 19:02:00,
2013-06-04 15:07:00,72.2,49.7,30.04,SSE,155,0.0,2.0,45,0.00,,---,0.00,VWS V14.01,2013-06-04 19:07:00,
2013-06-04 15:12:00,72.4,49.3,30.03,ESE,118,0.0,2.0,44,0.00,,---,0.00,VWS V14.01,2013-06-04 19:12:00,
2013-06-04 15:17:00,72.3,49.8,30.03,ESE,118,0.0,1.0,45,0.00,,---,0.00,VWS V14.01,2013-06-04 19:17:00,
2013-06-04 15:22:00,72.5,49.4,30.03,SSW,211,0.0,2.0,44,0.00,,---,0.00,VWS V14.01,2013-06-04 19:22:00,
2013-06-04 15:27:00,72.7,51.9,30.03,SSW,211,0.0,0.0,48,0.00,,---,0.00,VWS V14.01,2013-06-04 19:27:00,
2013-06-04 15:32:00,72.0,50.1,30.03,SSW,211,0.0,1.0,46,0.00,,---,0.00,VWS V14.01,2013-06-04 19:32:00,
2013-06-04 15:37:00,71.8,49.9,30.03,SSW,211,0.0,1.0,46,0.00,,---,0.00,VWS V14.01,2013-06-04 19:37:00,
2013-06-04 15:42:00,72.0,51.3,30.03,SSW,211,0.0,0.0,48,0.00,,---,0.00,VWS V14.01,2013-06-04 19:42:00,
2013-06-04 15:47:00,72.5,52.8,30.03,SSW,211,0.0,1.0,50,0.00,,---,0.00,VWS V14.01,2013-06-04 19:47:00,
2013-06-04 15:52:00,72.4,51.6,30.03,SSW,211,1.0,1.0,48,0.00,,---,0.00,VWS V14.01,2013-06-04 19:52:00,
2013-06-04 15:57:00,72.1,49.6,30.03,SSW,211,0.0,1.0,45,0.00,,---,0.00,VWS V14.01,2013-06-04 19:57:00,
2013-06-04 16:02:00,71.9,50.0,30.03,SSW,212,0.0,1.0,46,0.00,,---,0.00,VWS V14.01,2013-06-04 20:02:00,
2013-06-04 16:07:00,71.7,52.6,30.03,SSW,212,0.0,1.0,51,0.00,,---,0.00,VWS V14.01,2013-06-04 20:07:00,
2013-06-04 16:12:00,71.3,51.2,30.03,SSW,212,0.0,1.0,49,0.00,,---,0.00,VWS V14.01,2013-06-04 20:12:00,
2013-06-04 16:17:00,71.3,49.5,30.03,SSW,212,0.0,1.0,46,0.00,,---,0.00,VWS V14.01,2013-06-04 20:17:00,
2013-06-04 16:22:00,71.1,49.3,30.03,SSW,212,0.0,1.0,46,0.00,,---,0.00,VWS V14.01,2013-06-04 20:22:00,
2013-06-04 16:27:00,70.9,51.3,30.03,SSW,212,0.0,0.0,50,0.00,,---,0.00,VWS V14.01,2013-06-04 20:27:00,
2013-06-04 16:32:00,71.1,51.0,30.03,SSW,212,0.0,0.0,49,0.00,,---,0.00,VWS V14.01,2013-06-04 20:32:00,
2013-06-04 16:37:00,71.6,50.3,30.03,SSW,212,0.0,1.0,47,0.00,,---,0.00,VWS V14.01,2013-06-04 20:37:00,
2013-06-04 16:42:00,71.7,49.2,30.03,SSW,212,0.0,1.0,45,0.00,,---,0.00,VWS V14.01,2013-06-04 20:42:00,
2013-06-04 16:47:00,71.7,51.5,30.03,SSW,212,0.0,0.0,49,0.00,,---,0.00,VWS V14.01,2013-06-04 20:47:00,
2013-06-04 16:52:00,71.9,51.2,30.02,SSW,212,0.0,0.0,48,0.00,,---,0.00,VWS V14.01,2013-06-04 20:52:00,
2013-06-04 16:57:00,71.8,49.3,30.02,SSW,212,0.0,0.0,45,0.00,,---,0.00,VWS V14.01,2013-06-04 20:57:00,
2013-06-04 17:02:00,71.7,49.2,30.02,SSW,212,0.0,0.0,45,0.00,,---,0.00,VWS V14.01,2013-06-04 21:02:00,
2013-06-04 17:07:00,71.4,51.3,30.02,SSW,212,0.0,0.0,49,0.00,,---,0.00,VWS V14.01,2013-06-04 21:07:00,
2013-06-04 17:12:00,71.7,50.4,30.02,SSW,212,0.0,1.0,47,0.00,,---,0.00,VWS V14.01,2013-06-04 21:12:00,
2013-06-04 17:17:00,71.9,48.8,30.02,SSW,212,0.0,1.0,44,0.00,,---,0.00,VWS V14.01,2013-06-04 21:17:00,
2013-06-04 17:22:00,71.5,49.7,30.02,SSW,212,0.0,0.0,46,0.00,,---,0.00,VWS V14.01,2013-06-04 21:22:00,
2013-06-04 17:27:00,71.5,49.7,30.01,SSW,212,0.0,0.0,46,0.00,,---,0.00,VWS V14.01,2013-06-04 21:27:00,
2013-06-04 17:32:00,71.4,49.6,30.01,SSW,212,0.0,0.0,46,0.00,,---,0.00,VWS V14.01,2013-06-04 21:32:00,
2013-06-04 17:37:00,71.5,49.1,30.01,SSW,210,0.0,0.0,45,0.00,,---,0.00,VWS V14.01,2013-06-04 21:37:00,
2013-06-04 17:42:00,71.6,50.3,30.01,SSW,210,0.0,0.0,47,0.00,,---,0.00,VWS V14.01,2013-06-04 21:42:00,
2013-06-04 17:47:00,71.7,52.1,30.01,SSW,200,1.0,1.0,50,0.00,,---,0.00,VWS V14.01,2013-06-04 21:47:00,
2013-06-04 17:52:00,71.9,50.0,30.01,South,181,0.0,0.0,46,0.00,,---,0.00,VWS V14.01,2013-06-04 21:52:00,
2013-06-04 17:57:00,71.9,49.4,30.01,South,181,0.0,0.0,45,0.00,,---,0.00,VWS V14.01,2013-06-04 21:57:00,
2013-06-04 18:02:00,71.8,49.3,30.01,South,181,0.0,1.0,45,0.00,,---,0.00,VWS V14.01,2013-06-04 22:02:00,
2013-06-04 18:07:00,71.5,49.7,30.01,South,181,0.0,1.0,46,0.00,,---,0.00,VWS V14.01,2013-06-04 22:07:00,
2013-06-04 18:12:00,71.2,50.5,30.01,South,181,0.0,0.0,48,0.00,,---,0.00,VWS V14.01,2013-06-04 22:12:00,
2013-06-04 18:17:00,71.0,50.3,30.01,South,181,0.0,0.0,48,0.00,,---,0.00,VWS V14.01,2013-06-04 22:17:00,
2013-06-04 18:22:00,71.1,49.3,30.01,South,181,0.0,0.0,46,0.00,,---,0.00,VWS V14.01,2013-06-04 22:22:00,
2013-06-04 18:27:00,71.1,49.9,30.00,South,181,0.0,0.0,47,0.00,,---,0.00,VWS V14.01,2013-06-04 22:27:00,
2013-06-04 18:32:00,71.0,51.5,30.00,South,181,0.0,0.0,50,0.00,,---,0.00,VWS V14.01,2013-06-04 22:32:00,
2013-06-04 18:37:00,70.6,53.2,30.00,South,181,0.0,0.0,54,0.00,,---,0.00,VWS V14.01,2013-06-04 22:37:00,
2013-06-04 18:42:00,70.4,50.9,30.00,South,181,0.0,0.0,50,0.00,,---,0.00,VWS V14.01,2013-06-04 22:42:00,
2013-06-04 18:47:00,70.2,57.0,30.00,South,181,0.0,0.0,63,0.00,,---,0.00,VWS V14.01,2013-06-04 22:47:00,
2013-06-04 18:52:00,70.3,51.9,30.00,South,181,0.0,0.0,52,0.00,,---,0.00,VWS V14.01,2013-06-04 22:52:00,
2013-06-04 18:57:00,70.6,51.1,30.00,South,181,0.0,0.0,50,0.00,,---,0.00,VWS V14.01,2013-06-04 22:57:00,
2013-06-04 19:02:00,71.2,49.4,30.00,South,181,0.0,0.0,46,0.00,,---,0.00,VWS V14.01,2013-06-04 23:02:00,
2013-06-04 19:07:00,71.4,49.6,30.00,South,181,0.0,1.0,46,0.00,,---,0.00,VWS V14.01,2013-06-04 23:07:00,
2013-06-04 19:12:00,71.0,49.8,30.00,South,181,0.0,0.0,47,0.00,,---,0.00,VWS V14.01,2013-06-04 23:12:00,
2013-06-04 19:17:00,70.5,50.4,30.00,South,181,0.0,0.0,49,0.00,,---,0.00,VWS V14.01,2013-06-04 23:17:00,
2013-06-04 19:22:00,70.5,48.8,30.00,South,181,0.0,0.0,46,0.00,,---,0.00,VWS V14.01,2013-06-04 23:22:00,
2013-06-04 19:27:00,70.2,52.8,30.00,South,181,0.0,0.0,54,0.00,,---,0.00,VWS V14.01,2013-06-04 23:27:00,
2013-06-04 19:32:00,69.4,53.0,30.00,South,181,0.0,0.0,56,0.00,,---,0.00,VWS V14.01,2013-06-04 23:32:00,
2013-06-04 19:37:00,69.0,52.7,30.00,South,181,0.0,0.0,56,0.00,,---,0.00,VWS V14.01,2013-06-04 23:37:00,
2013-06-04 19:42:00,69.0,55.0,30.00,South,181,0.0,0.0,61,0.00,,---,0.00,VWS V14.01,2013-06-04 23:42:00,
2013-06-04 19:47:00,68.8,56.1,30.00,South,181,0.0,0.0,64,0.00,,---,0.00,VWS V14.01,2013-06-04 23:47:00,
2013-06-04 19:52:00,68.9,55.4,30.00,South,181,0.0,0.0,62,0.00,,---,0.00,VWS V14.01,2013-06-04 23:52:00,
2013-06-04 19:57:00,69.0,53.6,30.01,South,181,0.0,0.0,58,0.00,,---,0.00,VWS V14.01,2013-06-04 23:57:00,
2013-06-04 20:02:00,69.0,52.2,30.01,South,181,0.0,0.0,55,0.00,,---,0.00,VWS V14.01,2013-06-05 00:02:00,
2013-06-04 20:07:00,68.6,54.6,30.01,South,181,0.0,0.0,61,0.00,,---,0.00,VWS V14.01,2013-06-05 00:07:00,
2013-06-04 20:12:00,68.1,54.6,30.01,South,181,0.0,0.0,62,0.00,,---,0.00,VWS V14.01,2013-06-05 00:12:00,
2013-06-04 20:17:00,68.1,53.2,30.01,South,181,0.0,0.0,59,0.00,,---,0.00,VWS V14.01,2013-06-05 00:17:00,
2013-06-04 20:22:00,67.9,53.1,30.01,South,181,0.0,0.0,59,0.00,,---,0.00,VWS V14.01,2013-06-05 00:22:00,
2013-06-04 20:27:00,67.7,52.9,30.00,South,181,0.0,0.0,59,0.00,,---,0.00,VWS V14.01,2013-06-05 00:27:00,
2013-06-04 20:32:00,67.5,52.2,30.00,South,181,0.0,0.0,58,0.00,,---,0.00,VWS V14.01,2013-06-05 00:32:00,
2013-06-04 20:37:00,67.3,51.6,30.00,South,181,0.0,0.0,57,0.00,,---,0.00,VWS V14.01,2013-06-05 00:37:00,
2013-06-04 20:42:00,66.9,52.1,30.00,South,181,0.0,0.0,59,0.00,,---,0.00,VWS V14.01,2013-06-05 00:42:00,
2013-06-04 20:47:00,66.8,52.0,30.00,South,181,0.0,0.0,59,0.00,,---,0.00,VWS V14.01,2013-06-05 00:47:00,
2013-06-04 20:52:00,66.5,51.8,30.00,South,181,0.0,0.0,59,0.00,,---,0.00,VWS V14.01,2013-06-05 00:52:00,
2013-06-04 20:57:00,66.0,52.6,30.00,South,181,0.0,0.0,62,0.00,,---,0.00,VWS V14.01,2013-06-05 00:57:00,
2013-06-04 21:02:00,65.5,52.2,30.00,South,181,0.0,0.0,62,0.00,,---,0.00,VWS V14.01,2013-06-05 01:02:00,
2013-06-04 21:07:00,65.1,52.2,30.00,South,181,0.0,0.0,63,0.00,,---,0.00,VWS V14.01,2013-06-05 01:07:00,
2013-06-04 21:12:00,64.8,51.9,30.00,South,181,0.0,0.0,63,0.00,,---,0.00,VWS V14.01,2013-06-05 01:12:00,
2013-06-04 21:17:00,64.5,52.1,30.00,South,181,0.0,0.0,64,0.00,,---,0.00,VWS V14.01,2013-06-05 01:17:00,
2013-06-04 21:22:00,64.1,52.1,30.00,South,181,0.0,0.0,65,0.00,,---,0.00,VWS V14.01,2013-06-05 01:22:00,
2013-06-04 21:27:00,63.7,53.0,30.00,South,181,0.0,0.0,68,0.00,,---,0.00,VWS V14.01,2013-06-05 01:27:00,
2013-06-04 21:32:00,63.6,52.9,30.00,South,181,0.0,0.0,68,0.00,,---,0.00,VWS V14.01,2013-06-05 01:32:00,
2013-06-04 21:37:00,63.4,53.1,30.00,South,181,0.0,0.0,69,0.00,,---,0.00,VWS V14.01,2013-06-05 01:37:00,
2013-06-04 21:42:00,63.2,53.3,30.00,South,181,0.0,0.0,70,0.00,,---,0.00,VWS V14.01,2013-06-05 01:42:00,
2013-06-04 21:47:00,62.8,53.7,30.00,South,181,0.0,0.0,72,0.00,,---,0.00,VWS V14.01,2013-06-05 01:47:00,
2013-06-04 21:52:00,62.6,53.5,30.00,South,181,0.0,0.0,72,0.00,,---,0.00,VWS V14.01,2013-06-05 01:52:00,
2013-06-04 21:57:00,62.2,53.8,30.00,South,181,0.0,0.0,74,0.00,,---,0.00,VWS V14.01,2013-06-05 01:57:00,
2013-06-04 22:02:00,62.1,53.7,30.00,South,181,0.0,0.0,74,0.00,,---,0.00,VWS V14.01,2013-06-05 02:02:00,
2013-06-04 22:07:00,61.8,54.2,30.00,South,181,0.0,0.0,76,0.00,,---,0.00,VWS V14.01,2013-06-05 02:07:00,
2013-06-04 22:12:00,61.5,54.2,30.01,South,181,0.0,0.0,77,0.00,,---,0.00,VWS V14.01,2013-06-05 02:12:00,
2013-06-04 22:17:00,61.2,54.3,30.01,South,181,0.0,0.0,78,0.00,,---,0.00,VWS V14.01,2013-06-05 02:17:00,
2013-06-04 22:22:00,61.1,54.5,30.01,South,181,0.0,0.0,79,0.00,,---,0.00,VWS V14.01,2013-06-05 02:22:00,
2013-06-04 22:27:00,61.0,54.5,30.01,South,181,0.0,0.0,79,0.00,,---,0.00,VWS V14.01,2013-06-05 02:27:00,
2013-06-04 22:32:00,61.1,54.2,30.01,South,181,0.0,0.0,78,0.00,,---,0.00,VWS V14.01,2013-06-05 02:32:00,
2013-06-04 22:37:00,60.8,54.3,30.01,South,181,0.0,0.0,79,0.00,,---,0.00,VWS V14.01,2013-06-05 02:37:00,
2013-06-04 22:42:00,60.6,54.4,30.01,South,181,0.0,0.0,80,0.00,,---,0.00,VWS V14.01,2013-06-05 02:42:00,
2013-06-04 22:47:00,60.7,54.2,30.01,South,181,0.0,0.0,79,0.00,,---,0.00,VWS V14.01,2013-06-05 02:47:00,
2013-06-04 22:52:00,60.9,54.3,30.01,South,181,0.0,0.0,79,0.00,,---,0.00,VWS V14.01,2013-06-05 02:52:00,
2013-06-04 22:57:00,60.9,55.0,30.01,South,181,0.0,0.0,81,0.00,,---,0.00,VWS V14.01,2013-06-05 02:57:00,
2013-06-04 23:02:00,60.7,54.5,30.01,South,181,0.0,0.0,80,0.00,,---,0.00,VWS V14.01,2013-06-05 03:02:00,
2013-06-04 23:07:00,60.5,55.0,30.01,South,181,0.0,0.0,82,0.00,,---,0.00,VWS V14.01,2013-06-05 03:07:00,
2013-06-04 23:12:00,60.3,54.8,30.01,South,181,0.0,0.0,82,0.00,,---,0.00,VWS V14.01,2013-06-05 03:12:00,
2013-06-04 23:17:00,60.0,54.2,30.01,South,181,0.0,0.0,81,0.00,,---,0.00,VWS V14.01,2013-06-05 03:17:00,
2013-06-04 23:22:00,59.9,53.7,30.01,South,181,0.0,0.0,80,0.00,,---,0.00,VWS V14.01,2013-06-05 03:22:00,
2013-06-04 23:27:00,59.8,53.3,30.01,South,181,0.0,0.0,79,0.00,,---,0.00,VWS V14.01,2013-06-05 03:27:00,
2013-06-04 23:32:00,59.9,54.1,30.01,South,181,0.0,0.0,81,0.00,,---,0.00,VWS V14.01,2013-06-05 03:32:00,
2013-06-04 23:37:00,59.6,53.8,30.01,South,181,0.0,0.0,81,0.00,,---,0.00,VWS V14.01,2013-06-05 03:37:00,
2013-06-04 23:42:00,59.5,53.7,30.00,South,181,0.0,0.0,81,0.00,,---,0.00,VWS V14.01,2013-06-05 03:42:00,
2013-06-04 23:47:00,59.4,53.6,30.00,South,181,0.0,0.0,81,0.00,,---,0.00,VWS V14.01,2013-06-05 03:47:00,
2013-06-04 23:52:00,59.3,53.8,30.00,South,181,0.0,0.0,82,0.00,,---,0.00,VWS V14.01,2013-06-05 03:52:00,
2013-06-04 23:57:00,59.3,53.8,30.00,South,181,0.0,0.0,82,0.00,,---,0.00,VWS V14.01,2013-06-05 03:57:00,